createdAt,value
2019-04-27T02:32:24.761Z,97393.30
2019-04-27T02:34:46.953Z,97395.95
2019-04-27T02:36:50.254Z,97395.58
2019-04-27T02:38:50.262Z,97393.53
2019-04-27T02:40:51.898Z,97393.28
2019-04-27T02:42:54.549Z,97395.09
2019-04-27T02:44:55.148Z,97397.65
2019-04-27T02:46:56.753Z,97393.72
2019-04-27T02:49:03.686Z,97393.53
2019-04-27T02:51:00.048Z,97388.33
2019-04-27T02:53:03.175Z,97387.11
2019-04-27T02:55:03.275Z,97386.39
2019-04-27T02:57:04.883Z,97383.36
2019-04-27T02:59:11.503Z,97395.95
2019-04-27T03:01:09.968Z,97393.76
2019-04-27T03:03:10.340Z,97395.86
2019-04-27T03:05:13.083Z,97397.14
2019-04-27T03:07:13.318Z,97401.07
2019-04-27T03:09:14.929Z,97398.97
2019-04-27T03:11:16.520Z,97397.70
2019-04-27T03:13:20.077Z,97409.53
2019-04-27T03:15:25.904Z,97410.15
2019-04-27T03:17:30.761Z,97419.24
2019-04-27T03:19:34.956Z,97425.33
2019-04-27T03:21:42.309Z,97420.55
2019-04-27T03:23:43.897Z,97423.22
2019-04-27T03:26:02.320Z,97420.05
2019-04-27T03:28:06.448Z,97421.10
2019-04-27T03:30:11.802Z,97417.48
2019-04-27T03:32:12.681Z,97427.74
2019-04-27T03:34:16.422Z,97418.37
2019-04-27T03:36:13.426Z,97417.41
2019-04-27T03:38:14.830Z,97419.09
2019-04-27T03:40:16.426Z,97418.93
2019-04-27T03:42:20.499Z,97419.75
2019-04-27T03:44:19.719Z,97414.23
2019-04-27T03:46:21.344Z,97416.38
2019-04-27T03:48:23.135Z,97424.91
2019-04-27T03:50:25.229Z,97420.39
2019-04-27T03:52:30.671Z,97432.64
2019-04-27T03:54:33.221Z,97438.22
2019-04-27T03:56:34.816Z,97439.92
2019-04-27T03:58:36.424Z,97442.44
2019-04-27T04:00:39.887Z,97438.11
2019-04-27T04:02:40.530Z,97447.48
2019-04-27T04:04:41.405Z,97449.59
2019-04-27T04:06:42.997Z,97454.66
2019-04-27T04:08:44.588Z,97445.33
2019-04-27T04:11:05.945Z,97450.91
2019-04-27T04:13:10.742Z,97456.47
2019-04-27T04:15:10.230Z,97464.47
2019-04-27T04:17:12.680Z,97465.64
2019-04-27T04:19:13.373Z,97469.86
2019-04-27T04:21:14.961Z,97462.13
2019-04-27T04:23:16.567Z,97462.02
2019-04-27T04:25:20.022Z,97463.59
2019-04-27T04:27:20.142Z,97472.99
2019-04-27T04:29:21.422Z,97466.53
2019-04-27T04:31:23.037Z,97463.13
2019-04-27T04:33:24.643Z,97470.03
2019-04-27T04:35:26.233Z,97468.84
2019-04-27T04:37:29.640Z,97467.55
2019-04-27T04:39:29.781Z,97472.28
2019-04-27T04:41:43.695Z,97475.11
2019-04-27T04:43:42.672Z,97476.83
2019-04-27T04:45:49.755Z,97488.72
2019-04-27T04:47:50.645Z,97488.64
2019-04-27T04:50:07.483Z,97489.48
2019-04-27T04:51:53.860Z,97491.26
2019-04-27T04:53:55.466Z,97491.28
2019-04-27T04:55:57.085Z,97490.49
2019-04-27T04:57:59.131Z,97491.46
2019-04-27T05:00:00.369Z,97494.31
2019-04-27T05:02:02.485Z,97489.98
2019-04-27T05:04:03.611Z,97485.20
2019-04-27T05:06:05.251Z,97485.46
2019-04-27T05:08:06.871Z,97493.13
2019-04-27T05:10:09.046Z,97485.42
2019-04-27T05:12:10.137Z,97488.75
2019-04-27T05:14:11.728Z,97485.84
2019-04-27T05:16:13.298Z,97497.48
2019-04-27T05:18:14.902Z,97496.30
2019-04-27T05:20:26.016Z,97491.27
2019-04-27T05:22:23.878Z,97502.78
2019-04-27T05:24:25.488Z,97498.10
2019-04-27T05:26:27.079Z,97504.55
2019-04-27T05:28:29.905Z,97504.13
2019-04-27T05:30:30.318Z,97503.13
2019-04-27T05:32:31.924Z,97507.41
2019-04-27T05:34:33.579Z,97507.41
2019-04-27T05:36:35.156Z,97512.61
2019-04-27T05:38:39.907Z,97508.78
2019-04-27T05:40:39.922Z,97501.13
2019-04-27T05:42:40.105Z,97503.64
2019-04-27T05:44:45.713Z,97507.05
2019-04-27T05:46:44.218Z,97506.45
2019-04-27T05:48:45.832Z,97506.70
2019-04-27T05:50:51.453Z,97512.56
2019-04-27T05:52:49.653Z,97511.62
2019-04-27T05:54:50.815Z,97506.56
2019-04-27T05:56:52.404Z,97507.45
2019-04-27T05:58:54.008Z,97507.63
2019-04-27T06:00:55.632Z,97506.37
2019-04-27T06:02:58.924Z,97505.84
2019-04-27T06:05:00.004Z,97500.70
2019-04-27T06:07:01.042Z,97502.05
2019-04-27T06:09:02.224Z,97502.59
2019-04-27T06:11:03.872Z,97498.52
2019-04-27T06:13:05.460Z,97509.11
2019-04-27T06:15:07.045Z,97505.69
2019-04-27T06:17:09.456Z,97508.76
2019-04-27T06:19:10.337Z,97509.69
2019-04-27T06:21:11.951Z,97506.69
2019-04-27T06:23:13.536Z,97509.77
2019-04-27T06:25:15.122Z,97508.83
2019-04-27T06:27:18.544Z,97512.27
2019-04-27T06:29:19.520Z,97504.27
2019-04-27T06:31:20.128Z,97507.48
2019-04-27T06:33:29.521Z,97502.67
2019-04-27T06:35:23.355Z,97499.27
2019-04-27T06:37:24.964Z,97499.20
2019-04-27T06:39:26.574Z,97503.13
2019-04-27T06:41:29.468Z,97219.44
2019-04-27T06:43:29.836Z,97507.31
2019-04-27T06:45:31.420Z,97519.23
2019-04-27T06:47:33.024Z,97512.51
2019-04-27T06:49:34.626Z,97508.92
2019-04-27T06:51:36.248Z,97513.94
2019-04-27T06:53:39.471Z,97525.95
2019-04-27T06:55:39.466Z,97510.20
2019-04-27T06:57:41.277Z,97507.72
2019-04-27T06:59:42.716Z,97506.97
2019-04-27T07:01:44.336Z,97506.00
2019-04-27T07:03:45.920Z,97505.48
2019-04-27T07:05:48.688Z,97514.47
2019-04-27T07:07:49.203Z,97515.75
2019-04-27T07:09:50.814Z,97518.69
2019-04-27T07:11:52.464Z,97517.78
2019-04-27T07:13:54.077Z,97521.67
2019-04-27T07:15:55.668Z,97522.59
2019-04-27T07:17:58.615Z,97521.53
2019-04-27T07:19:59.486Z,97522.59
2019-04-27T07:22:00.623Z,97511.56
2019-04-27T07:24:02.227Z,97516.29
2019-04-27T07:26:03.816Z,97514.52
2019-04-27T07:28:05.414Z,97515.40
2019-04-27T07:30:11.445Z,97519.29
2019-04-27T07:32:09.287Z,97517.63
2019-04-27T07:36:18.867Z,97515.66
2019-04-27T07:38:20.052Z,97512.77
2019-04-27T07:40:21.636Z,97508.96
2019-04-27T07:42:23.759Z,97509.89
2019-04-27T07:44:39.099Z,97513.39
2019-04-27T07:46:40.264Z,97516.44
2019-04-27T07:48:41.868Z,97518.70
2019-04-27T07:50:43.462Z,97513.64
2019-04-27T07:52:45.038Z,97520.09
2019-04-27T07:54:46.658Z,97518.02
2019-04-27T07:56:48.857Z,97508.66
2019-04-27T07:58:49.937Z,97508.72
2019-04-27T08:00:51.536Z,97515.14
2019-04-27T08:02:53.118Z,97512.15
2019-04-27T08:04:54.728Z,97520.70
2019-04-27T08:06:56.396Z,97525.86
2019-04-27T08:08:59.350Z,97526.28
2019-04-27T08:10:59.613Z,97524.16
2019-04-27T08:13:01.267Z,97528.88
2019-04-27T08:15:02.856Z,97529.36
2019-04-27T08:17:04.475Z,97529.80
2019-04-27T08:19:06.063Z,97530.27
2019-04-27T08:21:08.945Z,97530.33
2019-04-27T08:23:09.690Z,97523.42
2019-04-27T08:25:10.948Z,97531.34
2019-04-27T08:27:29.324Z,97523.25
2019-04-27T08:29:33.200Z,97522.45
2019-04-27T08:31:35.296Z,97528.83
2019-04-27T08:33:36.888Z,97532.58
2019-04-27T08:35:38.928Z,97524.60
2019-04-27T08:37:40.110Z,97524.16
2019-04-27T08:39:41.735Z,97521.83
2019-04-27T08:41:43.321Z,97524.03
2019-04-27T08:43:44.947Z,97527.19
2019-04-27T08:45:46.532Z,97528.00
2019-04-27T08:47:49.778Z,97529.95
2019-04-27T08:49:49.832Z,97535.42
2019-04-27T08:51:58.868Z,97518.97
2019-04-27T08:53:53.058Z,97533.52
2019-04-27T08:55:54.650Z,97532.17
2019-04-27T08:57:56.291Z,97529.16
2019-04-27T08:59:59.676Z,97535.02
2019-04-27T09:01:59.512Z,97532.39
2019-04-27T09:04:01.135Z,97533.56
2019-04-27T09:06:02.740Z,97530.15
2019-04-27T09:08:10.160Z,97532.29
2019-04-27T09:10:23.556Z,97533.31
2019-04-27T09:12:30.844Z,97526.15
2019-04-27T09:14:32.428Z,97528.80
2019-04-27T09:16:34.887Z,97527.58
2019-04-27T09:18:36.476Z,97525.97
2019-04-27T09:20:38.993Z,97526.86
2019-04-27T09:22:40.334Z,97522.18
2019-04-27T09:24:41.910Z,97525.93
2019-04-27T09:26:43.495Z,97521.27
2019-04-27T09:28:45.094Z,97516.98
2019-04-27T09:30:46.719Z,97523.31
2019-04-27T09:32:48.352Z,97517.34
2019-04-27T09:34:50.671Z,97521.69
2019-04-27T09:36:53.538Z,97523.81
2019-04-27T09:38:56.511Z,97523.47
2019-04-27T09:40:58.090Z,97529.09
2019-04-27T09:42:58.499Z,97524.02
2019-04-27T09:45:00.121Z,97519.40
2019-04-27T09:47:01.704Z,97515.21
2019-04-27T09:49:03.288Z,97512.34
2019-04-27T09:51:06.463Z,97519.27
2019-04-27T09:53:06.563Z,97512.95
2019-04-27T09:55:08.493Z,97514.59
2019-04-27T09:57:09.819Z,97512.42
2019-04-27T09:59:11.404Z,97518.38
2019-04-27T10:01:15.758Z,97471.20
2019-04-27T10:03:14.692Z,97515.50
2019-04-27T10:05:17.162Z,97515.11
2019-04-27T10:07:17.960Z,97512.92
2019-04-27T10:09:19.650Z,97513.27
2019-04-27T10:11:21.273Z,97516.58
2019-04-27T10:13:22.846Z,97514.42
2019-04-27T10:15:24.422Z,97513.52
2019-04-27T10:17:26.010Z,97517.40
2019-04-27T10:19:31.119Z,97505.47
2019-04-27T10:21:29.302Z,97506.77
2019-04-27T10:23:30.898Z,97477.05
2019-04-27T10:25:32.511Z,97506.50
2019-04-27T10:27:35.837Z,97499.26
2019-04-27T10:29:35.789Z,97495.42
2019-04-27T10:31:37.436Z,97496.69
2019-04-27T10:33:39.062Z,97496.27
2019-04-27T10:35:40.662Z,97495.84
2019-04-27T10:37:42.263Z,97500.53
2019-04-27T10:39:43.852Z,97497.98
2019-04-27T10:41:46.335Z,97503.53
2019-04-27T10:43:47.103Z,97502.66
2019-04-27T10:45:48.712Z,97501.42
2019-04-27T10:47:50.300Z,97496.16
2019-04-27T10:49:51.866Z,97490.53
2019-04-27T10:51:53.448Z,97496.78
2019-04-27T10:53:55.793Z,97495.47
2019-04-27T10:55:56.732Z,97496.41
2019-04-27T10:57:58.322Z,97493.01
2019-04-27T10:59:59.931Z,97495.98
2019-04-27T11:02:01.633Z,97491.31
2019-04-27T11:04:18.095Z,97492.14
2019-04-27T11:06:36.427Z,97487.70
2019-04-27T11:08:38.014Z,97482.48
2019-04-27T11:10:39.602Z,97488.88
2019-04-27T11:12:41.189Z,97491.44
2019-04-27T11:14:42.793Z,97490.66
2019-04-27T11:16:45.950Z,97463.48
2019-04-27T11:18:47.100Z,97492.75
2019-04-27T11:20:47.774Z,97492.75
2019-04-27T11:22:49.420Z,97487.64
2019-04-27T11:24:51.013Z,97476.65
2019-04-27T11:26:52.610Z,97474.49
2019-04-27T11:28:54.260Z,97481.85
2019-04-27T11:30:55.872Z,97479.20
2019-04-27T11:32:59.327Z,97477.09
2019-04-27T11:35:00.680Z,97478.78
2019-04-27T11:37:02.283Z,97478.38
2019-04-27T11:39:03.914Z,97473.77
2019-04-27T11:41:07.504Z,97471.20
2019-04-27T11:43:07.388Z,97470.81
2019-04-27T11:45:09.156Z,97475.31
2019-04-27T11:47:10.748Z,97472.11
2019-04-27T11:49:12.322Z,97476.06
2019-04-27T11:51:17.085Z,97474.89
2019-04-27T11:53:22.855Z,97473.68
2019-04-27T11:55:17.180Z,97474.45
2019-04-27T11:57:18.788Z,97428.37
2019-04-27T11:59:20.385Z,97473.28
2019-04-27T12:01:21.972Z,97471.42
2019-04-27T12:03:23.542Z,97470.30
2019-04-27T12:05:26.070Z,97474.69
2019-04-27T12:07:26.851Z,97477.70
2019-04-27T12:09:28.485Z,97476.06
2019-04-27T12:11:30.097Z,97477.33
2019-04-27T12:13:31.685Z,97478.12
2019-04-27T12:15:33.323Z,97475.03
2019-04-27T12:17:35.882Z,97473.28
2019-04-27T12:19:36.632Z,97448.45
2019-04-27T12:21:38.220Z,97470.48
2019-04-27T12:23:41.399Z,97466.69
2019-04-27T12:25:41.503Z,97470.42
2019-04-27T12:27:45.842Z,97464.89
2019-04-27T12:29:51.859Z,97469.16
2019-04-27T12:31:53.477Z,97467.80
2019-04-27T12:33:56.015Z,97468.25
2019-04-27T12:35:56.999Z,97467.73
2019-04-27T12:37:58.454Z,97468.69
2019-04-27T12:40:00.102Z,97466.30
2019-04-27T12:42:01.699Z,97467.10
2019-04-27T12:44:03.304Z,97467.47
2019-04-27T12:46:05.916Z,97466.19
2019-04-27T12:48:06.598Z,97461.91
2019-04-27T12:50:08.268Z,97473.77
2019-04-27T12:52:09.860Z,97466.94
2019-04-27T12:54:24.215Z,97464.80
2019-04-27T12:56:40.749Z,97452.08
2019-04-27T12:58:43.956Z,97451.27
2019-04-27T13:00:57.653Z,97456.47
2019-04-27T13:02:59.241Z,97451.95
2019-04-27T13:05:00.855Z,97453.16
2019-04-27T13:07:02.440Z,97455.78
2019-04-27T13:09:04.028Z,97455.80
2019-04-27T13:11:06.046Z,97453.27
2019-04-27T13:13:07.361Z,97451.98
2019-04-27T13:15:08.954Z,97449.75
2019-04-27T13:17:10.535Z,97440.76
2019-04-27T13:19:12.136Z,97447.37
2019-04-27T13:21:13.784Z,97446.46
2019-04-27T13:23:15.395Z,97444.33
2019-04-27T13:25:16.984Z,97447.73
2019-04-27T13:27:18.572Z,97441.34
2019-04-27T13:29:20.188Z,97440.50
2019-04-27T13:31:21.849Z,97437.50
2019-04-27T13:33:23.464Z,97437.92
2019-04-27T13:35:25.850Z,97386.54
2019-04-27T13:37:30.552Z,97431.59
2019-04-27T13:39:32.140Z,97432.47
2019-04-27T13:41:33.744Z,97433.68
2019-04-27T13:43:35.372Z,97436.66
2019-04-27T13:45:46.858Z,97440.92
2019-04-27T13:48:04.061Z,97442.19
2019-04-27T13:50:09.458Z,97440.86
2019-04-27T13:52:11.061Z,97443.80
2019-04-27T13:54:21.453Z,97434.46
2019-04-27T13:56:17.123Z,97441.66
2019-04-27T13:58:16.857Z,97484.33
2019-04-27T14:00:18.427Z,97427.53
2019-04-27T14:02:23.477Z,97421.55
2019-04-27T14:04:21.699Z,97420.77
2019-04-27T14:06:23.288Z,97416.50
2019-04-27T14:08:24.876Z,97412.34
2019-04-27T14:10:28.608Z,97407.19
2019-04-27T14:12:28.526Z,97405.08
2019-04-27T14:14:29.811Z,97402.87
2019-04-27T14:16:31.416Z,97401.16
2019-04-27T14:18:33.004Z,97400.32
2019-04-27T14:20:34.612Z,97390.73
2019-04-27T14:22:36.251Z,97391.19
2019-04-27T14:24:40.270Z,97380.41
2019-04-27T14:26:41.929Z,97381.51
2019-04-27T14:28:43.535Z,97383.02
2019-04-27T14:30:45.150Z,97380.38
2019-04-27T14:32:46.773Z,97388.97
2019-04-27T14:34:50.274Z,97387.91
2019-04-27T14:36:50.016Z,97391.88
2019-04-27T14:38:51.604Z,97383.49
2019-04-27T14:40:53.188Z,97385.20
2019-04-27T14:42:54.818Z,97387.76
2019-04-27T14:44:56.407Z,97392.84
2019-04-27T14:46:58.321Z,97387.37
2019-04-27T14:48:59.628Z,97390.61
2019-04-27T14:51:01.216Z,97389.88
2019-04-27T14:53:02.855Z,97389.92
2019-04-27T14:55:04.487Z,97395.52
2019-04-27T14:57:06.072Z,97396.14
2019-04-27T14:59:07.683Z,97387.37
2019-04-27T15:01:09.271Z,97385.45
2019-04-27T15:03:10.881Z,97388.16
2019-04-27T15:05:12.525Z,97391.01
2019-04-27T15:07:14.103Z,97391.55
2019-04-27T15:09:18.059Z,97397.16
2019-04-27T15:11:19.260Z,97391.30
2019-04-27T15:13:19.013Z,97392.77
2019-04-27T15:15:21.443Z,97398.34
2019-04-27T15:17:25.552Z,97389.36
2019-04-27T15:19:26.608Z,97388.64
2019-04-27T15:21:28.469Z,97385.83
2019-04-27T15:23:30.826Z,97377.30
2019-04-27T15:25:35.031Z,97386.34
2019-04-27T15:27:37.401Z,97381.56
2019-04-27T15:29:35.085Z,97388.17
2019-04-27T15:31:36.675Z,97390.95
2019-04-27T15:33:46.791Z,97387.77
2019-04-27T15:35:45.743Z,97388.33
2019-04-27T15:37:50.640Z,97388.25
2019-04-27T15:40:10.016Z,97385.66
2019-04-27T15:42:09.807Z,97375.42
2019-04-27T15:44:11.158Z,97375.62
2019-04-27T15:46:12.747Z,97376.12
2019-04-27T15:48:14.334Z,97375.45
2019-04-27T15:50:15.953Z,97376.08
2019-04-27T15:52:17.939Z,97374.05
2019-04-27T15:54:22.427Z,97366.67
2019-04-27T15:56:21.821Z,97370.02
2019-04-27T15:58:25.065Z,97371.80
2019-04-27T16:00:24.450Z,97370.55
2019-04-27T16:02:26.026Z,97370.66
2019-04-27T16:04:27.623Z,97365.64
2019-04-27T16:06:29.263Z,97369.44
2019-04-27T16:08:30.876Z,97372.98
2019-04-27T16:10:36.508Z,97362.86
2019-04-27T16:12:38.195Z,97368.76
2019-04-27T16:14:36.393Z,97371.98
2019-04-27T16:16:38.231Z,97364.67
2019-04-27T16:18:39.179Z,97366.74
2019-04-27T16:20:40.784Z,97370.59
2019-04-27T16:22:42.414Z,97364.06
2019-04-27T16:24:43.999Z,97366.06
2019-04-27T16:26:46.520Z,97367.31
2019-04-27T16:28:52.854Z,97359.91
2019-04-27T16:30:50.605Z,97357.58
2019-04-27T16:32:50.640Z,97355.86
2019-04-27T16:34:52.231Z,97358.46
2019-04-27T16:36:53.819Z,97347.00
2019-04-27T16:38:55.423Z,97345.72
2019-04-27T16:40:59.676Z,97351.02
2019-04-27T16:42:58.756Z,97349.31
2019-04-27T16:45:00.348Z,97346.89
2019-04-27T16:47:02.007Z,97309.08
2019-04-27T16:49:07.334Z,97343.63
2019-04-27T16:51:05.281Z,97340.09
2019-04-27T16:53:08.743Z,97342.56
2019-04-27T16:55:08.759Z,97350.63
2019-04-27T16:57:10.449Z,97350.28
2019-04-27T16:59:36.636Z,97349.80
2019-04-27T17:01:18.253Z,97348.19
2019-04-27T17:03:18.279Z,97342.84
2019-04-27T17:05:19.929Z,97350.92
2019-04-27T17:07:21.574Z,97345.61
2019-04-27T17:09:23.622Z,97341.91
2019-04-27T17:11:25.346Z,97349.78
2019-04-27T17:13:28.039Z,97346.78
2019-04-27T17:15:34.529Z,97344.03
2019-04-27T17:17:38.668Z,97342.81
2019-04-27T17:19:43.894Z,97342.28
2019-04-27T17:21:43.378Z,97352.57
2019-04-27T17:23:44.996Z,97348.61
2019-04-27T17:25:48.084Z,97350.27
2019-04-27T17:27:49.911Z,97349.16
2019-04-27T17:29:58.458Z,97352.98
2019-04-27T17:31:55.200Z,97330.23
2019-04-27T17:33:55.874Z,97350.99
2019-04-27T17:35:57.646Z,97352.23
2019-04-27T17:37:59.608Z,97346.89
2019-04-27T17:40:00.980Z,97303.95
2019-04-27T17:42:02.578Z,97348.53
2019-04-27T17:44:04.181Z,97348.45
2019-04-27T17:46:07.385Z,97346.31
2019-04-27T17:48:10.808Z,97304.30
2019-04-27T17:50:09.436Z,97355.98
2019-04-27T17:52:13.113Z,97353.11
2019-04-27T17:54:12.693Z,97360.39
2019-04-27T17:56:14.297Z,97355.18
2019-04-27T17:58:17.987Z,97348.64
2019-04-27T18:00:18.871Z,97357.61
2019-04-27T18:02:19.316Z,97350.02
2019-04-27T18:04:20.927Z,97353.05
2019-04-27T18:06:24.472Z,97357.89
2019-04-27T18:08:25.264Z,97352.58
2019-04-27T18:10:25.830Z,97348.31
2019-04-27T18:12:28.547Z,97356.25
2019-04-27T18:14:32.774Z,97354.55
2019-04-27T18:16:34.277Z,97358.63
2019-04-27T18:18:34.032Z,97360.86
2019-04-27T18:20:35.652Z,97362.45
2019-04-27T18:22:39.609Z,97365.20
2019-04-27T18:24:41.530Z,97367.19
2019-04-27T18:26:49.303Z,97366.27
2019-04-27T18:28:45.807Z,97362.58
2019-04-27T18:30:57.115Z,97365.27
2019-04-27T18:33:01.996Z,97376.19
2019-04-27T18:35:00.424Z,97380.13
2019-04-27T18:37:04.295Z,97400.38
2019-04-27T18:39:05.513Z,97386.41
2019-04-27T18:41:08.026Z,97384.55
2019-04-27T18:43:12.169Z,97389.89
2019-04-27T18:45:09.271Z,97390.80
2019-04-27T18:47:10.893Z,97388.28
2019-04-27T18:49:15.436Z,97395.74
2019-04-27T18:51:25.083Z,97398.42
2019-04-27T18:53:28.712Z,97400.65
2019-04-27T18:55:28.963Z,97403.97
2019-04-27T18:57:30.103Z,97403.58
2019-04-27T18:59:31.717Z,97404.31
2019-04-27T19:01:33.351Z,97402.55
2019-04-27T19:03:34.945Z,97395.22
2019-04-27T19:05:40.114Z,97403.31
2019-04-27T19:07:38.348Z,97403.95
2019-04-27T19:09:39.904Z,97411.12
2019-04-27T19:11:53.400Z,97418.84
2019-04-27T19:13:43.196Z,97422.69
2019-04-27T19:15:44.801Z,97421.91
2019-04-27T19:17:46.429Z,97418.59
2019-04-27T19:19:48.038Z,97430.97
2019-04-27T19:21:49.654Z,97430.63
2019-04-27T19:23:51.285Z,97432.37
2019-04-27T19:25:58.424Z,97431.02
2019-04-27T19:28:12.941Z,97429.10
2019-04-27T19:30:20.289Z,97426.93
2019-04-27T19:32:21.912Z,97427.59
2019-04-27T19:34:23.547Z,97424.81
2019-04-27T19:36:25.161Z,97425.58
2019-04-27T19:38:26.802Z,97416.43
2019-04-27T19:40:29.034Z,97420.50
2019-04-27T19:42:30.039Z,97416.28
2019-04-27T19:44:31.671Z,97423.20
2019-04-27T19:46:33.263Z,97422.65
2019-04-27T19:48:34.875Z,97426.81
2019-04-27T19:50:36.488Z,97431.00
2019-04-27T19:52:38.880Z,97431.91
2019-04-27T19:54:39.930Z,97426.17
2019-04-27T19:56:41.433Z,97427.41
2019-04-27T19:58:43.744Z,97441.34
2019-04-27T20:00:45.356Z,97451.22
2019-04-27T20:02:47.948Z,97446.42
2019-04-27T20:04:50.040Z,97454.13
2019-04-27T20:06:50.272Z,97453.50
2019-04-27T20:08:55.420Z,97451.86
2019-04-27T20:10:57.023Z,97453.55
2019-04-27T20:12:58.620Z,97449.84
2019-04-27T20:15:02.080Z,97445.47
2019-04-27T20:17:01.937Z,97446.53
2019-04-27T20:19:03.532Z,97451.00
2019-04-27T20:21:05.125Z,97463.64
2019-04-27T20:23:06.743Z,97465.73
2019-04-27T20:25:08.340Z,97467.57
2019-04-27T20:27:10.931Z,97468.72
2019-04-27T20:29:11.898Z,97468.20
2019-04-27T20:31:13.340Z,97471.32
2019-04-27T20:33:14.999Z,97471.94
2019-04-27T20:35:16.589Z,97473.67
2019-04-27T20:37:18.181Z,97468.96
2019-04-27T20:39:19.810Z,97469.87
2019-04-27T20:41:21.872Z,97469.16
2019-04-27T20:43:24.711Z,97465.59
2019-04-27T20:45:24.761Z,97468.89
2019-04-27T20:47:26.366Z,97472.67
2019-04-27T20:49:28.021Z,97477.19
2019-04-27T20:51:35.299Z,97480.83
2019-04-27T20:53:42.455Z,97481.11
2019-04-27T20:55:44.074Z,97482.38
2019-04-27T20:57:58.392Z,97486.55
2019-04-27T20:59:47.372Z,97489.86
